sensor_id;sensor_type;location;lat;lon;timestamp;temperature;humidity
9658;DHT22;4867;48.112;11.622;2023-02-17T00:01:29;8.70;99.90
9658;DHT22;4867;48.112;11.622;2023-02-17T00:03:57;8.60;99.90
9658;DHT22;4867;48.112;11.622;2023-02-17T00:06:27;8.60;99.90
9658;DHT22;4867;48.112;11.622;2023-02-17T00:08:55;8.60;99.90
9658;DHT22;4867;48.112;11.622;2023-02-17T00:11:22;8.50;99.90
9658;DHT22;4867;48.112;11.622;2023-02-17T00:13:50;8.50;99.90
9658;DHT22;4867;48.112;11.622;2023-02-17T00:16:23;8.50;99.90
9658;DHT22;4867;48.112;11.622;2023-02-17T00:18:53;8.50;99.90
9658;DHT22;4867;48.112;11.622;2023-02-17T00:21:23;8.50;99.90
9658;DHT22;4867;48.112;11.622;2023-02-17T00:23:51;8.50;99.90
9658;DHT22;4867;48.112;11.622;2023-02-17T00:26:20;8.50;99.90
9658;DHT22;4867;48.112;11.622;2023-02-17T00:28:48;8.50;99.90
9658;DHT22;4867;48.112;11.622;2023-02-17T00:31:18;8.50;99.90
9658;DHT22;4867;48.112;11.622;2023-02-17T00:33:46;8.50;99.90
9658;DHT22;4867;48.112;11.622;2023-02-17T00:36:16;8.50;99.90
9658;DHT22;4867;48.112;11.622;2023-02-17T00:38:44;8.50;99.90
9658;DHT22;4867;48.112;11.622;2023-02-17T00:41:15;8.50;99.90
9658;DHT22;4867;48.112;11.622;2023-02-17T00:43:42;8.50;99.90
9658;DHT22;4867;48.112;11.622;2023-02-17T00:46:09;8.50;99.90
9658;DHT22;4867;48.112;11.622;2023-02-17T00:48:37;8.50;99.90
9658;DHT22;4867;48.112;11.622;2023-02-17T00:51:04;8.50;99.90
9658;DHT22;4867;48.112;11.622;2023-02-17T00:53:33;8.50;99.90
9658;DHT22;4867;48.112;11.622;2023-02-17T00:56:01;8.50;99.90
9658;DHT22;4867;48.112;11.622;2023-02-17T00:58:29;8.50;99.90
9658;DHT22;4867;48.112;11.622;2023-02-17T01:00:57;8.50;99.90
9658;DHT22;4867;48.112;11.622;2023-02-17T01:03:26;8.50;99.90
9658;DHT22;4867;48.112;11.622;2023-02-17T01:05:54;8.50;99.90
9658;DHT22;4867;48.112;11.622;2023-02-17T01:08:22;8.40;99.90
9658;DHT22;4867;48.112;11.622;2023-02-17T01:10:51;8.40;99.90
9658;DHT22;4867;48.112;11.622;2023-02-17T01:13:18;8.40;99.90
9658;DHT22;4867;48.112;11.622;2023-02-17T01:15:50;8.40;99.90
9658;DHT22;4867;48.112;11.622;2023-02-17T01:18:20;8.30;99.90
9658;DHT22;4867;48.112;11.622;2023-02-17T01:20:50;8.30;99.90
9658;DHT22;4867;48.112;11.622;2023-02-17T01:23:17;8.20;99.90
9658;DHT22;4867;48.112;11.622;2023-02-17T01:25:46;8.20;99.90
9658;DHT22;4867;48.112;11.622;2023-02-17T01:28:18;8.20;99.90
9658;DHT22;4867;48.112;11.622;2023-02-17T01:30:46;8.20;99.90
9658;DHT22;4867;48.112;11.622;2023-02-17T01:33:14;8.10;99.90
9658;DHT22;4867;48.112;11.622;2023-02-17T01:35:41;8.10;99.90
9658;DHT22;4867;48.112;11.622;2023-02-17T01:38:11;8.10;99.90
9658;DHT22;4867;48.112;11.622;2023-02-17T01:40:46;8.10;99.90
9658;DHT22;4867;48.112;11.622;2023-02-17T01:43:16;8.10;99.90
9658;DHT22;4867;48.112;11.622;2023-02-17T01:45:55;8.00;99.90
9658;DHT22;4867;48.112;11.622;2023-02-17T01:48:35;8.00;99.90
9658;DHT22;4867;48.112;11.622;2023-02-17T01:51:19;8.00;99.90
9658;DHT22;4867;48.112;11.622;2023-02-17T01:53:54;7.90;99.90
9658;DHT22;4867;48.112;11.622;2023-02-17T01:56:25;7.90;99.90
9658;DHT22;4867;48.112;11.622;2023-02-17T01:58:58;7.90;99.90
9658;DHT22;4867;48.112;11.622;2023-02-17T02:01:27;7.90;99.90
9658;DHT22;4867;48.112;11.622;2023-02-17T02:03:57;7.90;99.90
9658;DHT22;4867;48.112;11.622;2023-02-17T02:06:26;8.00;99.90
9658;DHT22;4867;48.112;11.622;2023-02-17T02:09:07;8.00;99.90
9658;DHT22;4867;48.112;11.622;2023-02-17T02:11:35;8.00;99.90
9658;DHT22;4867;48.112;11.622;2023-02-17T02:14:04;8.10;99.90
9658;DHT22;4867;48.112;11.622;2023-02-17T02:22:22;8.20;99.90
9658;DHT22;4867;48.112;11.622;2023-02-17T02:33:56;8.40;99.90
9658;DHT22;4867;48.112;11.622;2023-02-17T02:36:32;8.40;99.90
9658;DHT22;4867;48.112;11.622;2023-02-17T02:39:13;8.60;99.90
9658;DHT22;4867;48.112;11.622;2023-02-17T02:41:45;8.50;99.90
9658;DHT22;4867;48.112;11.622;2023-02-17T02:44:18;8.50;99.90
9658;DHT22;4867;48.112;11.622;2023-02-17T02:46:56;8.50;99.90
9658;DHT22;4867;48.112;11.622;2023-02-17T02:49:23;8.60;99.90
9658;DHT22;4867;48.112;11.622;2023-02-17T02:55:03;8.70;99.90
9658;DHT22;4867;48.112;11.622;2023-02-17T03:00:23;8.70;99.90
9658;DHT22;4867;48.112;11.622;2023-02-17T03:03:06;8.80;99.90
9658;DHT22;4867;48.112;11.622;2023-02-17T03:05:56;8.80;99.90
9658;DHT22;4867;48.112;11.622;2023-02-17T03:08:32;8.80;99.90
9658;DHT22;4867;48.112;11.622;2023-02-17T03:11:00;8.90;99.90
9658;DHT22;4867;48.112;11.622;2023-02-17T03:13:34;8.90;99.90
9658;DHT22;4867;48.112;11.622;2023-02-17T03:16:07;8.90;99.90
9658;DHT22;4867;48.112;11.622;2023-02-17T03:18:35;8.90;99.90
9658;DHT22;4867;48.112;11.622;2023-02-17T03:21:10;8.90;99.90
9658;DHT22;4867;48.112;11.622;2023-02-17T03:23:38;8.90;99.90
9658;DHT22;4867;48.112;11.622;2023-02-17T03:26:05;8.90;99.90
9658;DHT22;4867;48.112;11.622;2023-02-17T03:28:33;8.90;99.90
9658;DHT22;4867;48.112;11.622;2023-02-17T03:31:00;8.90;99.90
9658;DHT22;4867;48.112;11.622;2023-02-17T03:33:28;8.90;99.90
9658;DHT22;4867;48.112;11.622;2023-02-17T03:35:55;9.00;99.90
9658;DHT22;4867;48.112;11.622;2023-02-17T03:38:22;9.00;99.90
9658;DHT22;4867;48.112;11.622;2023-02-17T03:40:50;9.00;99.90
9658;DHT22;4867;48.112;11.622;2023-02-17T03:43:19;9.00;99.90
9658;DHT22;4867;48.112;11.622;2023-02-17T03:45:46;9.00;99.90
9658;DHT22;4867;48.112;11.622;2023-02-17T03:48:13;9.10;99.90
9658;DHT22;4867;48.112;11.622;2023-02-17T03:50:40;9.00;99.90
9658;DHT22;4867;48.112;11.622;2023-02-17T03:53:08;9.00;99.90
9658;DHT22;4867;48.112;11.622;2023-02-17T03:55:36;9.00;99.90
9658;DHT22;4867;48.112;11.622;2023-02-17T03:58:04;9.00;99.90
9658;DHT22;4867;48.112;11.622;2023-02-17T04:00:31;9.00;99.90
9658;DHT22;4867;48.112;11.622;2023-02-17T04:02:59;9.10;99.90
9658;DHT22;4867;48.112;11.622;2023-02-17T04:05:26;9.00;99.90
9658;DHT22;4867;48.112;11.622;2023-02-17T04:07:53;9.10;99.90
9658;DHT22;4867;48.112;11.622;2023-02-17T04:10:20;9.30;99.90
9658;DHT22;4867;48.112;11.622;2023-02-17T04:12:47;9.20;99.90
9658;DHT22;4867;48.112;11.622;2023-02-17T04:15:14;9.20;99.90
9658;DHT22;4867;48.112;11.622;2023-02-17T04:17:42;9.20;99.90
9658;DHT22;4867;48.112;11.622;2023-02-17T04:20:09;9.20;99.90
9658;DHT22;4867;48.112;11.622;2023-02-17T04:22:37;9.30;99.90
9658;DHT22;4867;48.112;11.622;2023-02-17T04:25:04;9.30;99.90
9658;DHT22;4867;48.112;11.622;2023-02-17T04:27:31;9.30;99.90
9658;DHT22;4867;48.112;11.622;2023-02-17T04:29:58;9.40;99.90
9658;DHT22;4867;48.112;11.622;2023-02-17T04:32:26;9.30;99.90
9658;DHT22;4867;48.112;11.622;2023-02-17T04:34:53;9.40;99.90
9658;DHT22;4867;48.112;11.622;2023-02-17T04:37:20;9.40;99.90
9658;DHT22;4867;48.112;11.622;2023-02-17T04:39:47;9.40;99.90
9658;DHT22;4867;48.112;11.622;2023-02-17T04:42:14;9.40;99.90
9658;DHT22;4867;48.112;11.622;2023-02-17T04:44:42;9.40;99.90
9658;DHT22;4867;48.112;11.622;2023-02-17T04:47:09;9.40;99.90
9658;DHT22;4867;48.112;11.622;2023-02-17T04:49:36;9.50;99.90
9658;DHT22;4867;48.112;11.622;2023-02-17T04:52:03;9.50;99.90
9658;DHT22;4867;48.112;11.622;2023-02-17T04:54:31;9.50;99.90
9658;DHT22;4867;48.112;11.622;2023-02-17T04:56:58;9.50;99.90
9658;DHT22;4867;48.112;11.622;2023-02-17T04:59:25;9.60;99.90
9658;DHT22;4867;48.112;11.622;2023-02-17T05:01:52;9.60;99.90
9658;DHT22;4867;48.112;11.622;2023-02-17T05:04:19;9.60;99.90
9658;DHT22;4867;48.112;11.622;2023-02-17T05:06:47;9.70;99.90
9658;DHT22;4867;48.112;11.622;2023-02-17T05:09:14;9.60;99.90
9658;DHT22;4867;48.112;11.622;2023-02-17T05:11:41;9.60;99.90
9658;DHT22;4867;48.112;11.622;2023-02-17T05:14:08;9.70;99.90
9658;DHT22;4867;48.112;11.622;2023-02-17T05:16:35;9.70;99.90
9658;DHT22;4867;48.112;11.622;2023-02-17T05:19:03;9.80;99.90
9658;DHT22;4867;48.112;11.622;2023-02-17T05:21:30;9.70;99.90
9658;DHT22;4867;48.112;11.622;2023-02-17T05:23:58;9.70;99.90
9658;DHT22;4867;48.112;11.622;2023-02-17T05:26:26;9.70;99.90
9658;DHT22;4867;48.112;11.622;2023-02-17T05:28:53;9.70;99.90
9658;DHT22;4867;48.112;11.622;2023-02-17T05:31:20;9.70;99.90
9658;DHT22;4867;48.112;11.622;2023-02-17T05:33:47;9.80;99.90
9658;DHT22;4867;48.112;11.622;2023-02-17T05:36:15;9.80;99.90
9658;DHT22;4867;48.112;11.622;2023-02-17T05:38:42;9.70;99.90
9658;DHT22;4867;48.112;11.622;2023-02-17T05:41:10;9.80;99.90
9658;DHT22;4867;48.112;11.622;2023-02-17T05:43:38;9.80;99.90
9658;DHT22;4867;48.112;11.622;2023-02-17T05:46:05;9.80;99.90
9658;DHT22;4867;48.112;11.622;2023-02-17T05:48:33;9.90;99.90
9658;DHT22;4867;48.112;11.622;2023-02-17T05:51:00;9.90;99.90
9658;DHT22;4867;48.112;11.622;2023-02-17T05:53:27;9.80;99.90
9658;DHT22;4867;48.112;11.622;2023-02-17T05:55:55;9.80;99.90
9658;DHT22;4867;48.112;11.622;2023-02-17T05:58:22;9.80;99.90
9658;DHT22;4867;48.112;11.622;2023-02-17T06:00:49;9.80;99.90
9658;DHT22;4867;48.112;11.622;2023-02-17T06:03:16;9.80;99.90
9658;DHT22;4867;48.112;11.622;2023-02-17T06:05:44;9.90;99.90
9658;DHT22;4867;48.112;11.622;2023-02-17T06:08:11;9.90;99.90
9658;DHT22;4867;48.112;11.622;2023-02-17T06:10:40;9.90;99.90
9658;DHT22;4867;48.112;11.622;2023-02-17T06:13:08;9.90;99.90
9658;DHT22;4867;48.112;11.622;2023-02-17T06:15:35;9.90;99.90
9658;DHT22;4867;48.112;11.622;2023-02-17T06:18:02;9.80;99.90
9658;DHT22;4867;48.112;11.622;2023-02-17T06:20:29;9.80;99.90
9658;DHT22;4867;48.112;11.622;2023-02-17T06:22:57;9.90;99.90
9658;DHT22;4867;48.112;11.622;2023-02-17T06:25:24;9.90;99.90
9658;DHT22;4867;48.112;11.622;2023-02-17T06:27:52;9.90;99.90
9658;DHT22;4867;48.112;11.622;2023-02-17T06:30:19;9.90;99.90
9658;DHT22;4867;48.112;11.622;2023-02-17T06:32:47;9.90;99.90
9658;DHT22;4867;48.112;11.622;2023-02-17T06:35:14;10.00;99.90
9658;DHT22;4867;48.112;11.622;2023-02-17T06:37:42;10.00;99.90
9658;DHT22;4867;48.112;11.622;2023-02-17T06:40:09;10.00;99.90
9658;DHT22;4867;48.112;11.622;2023-02-17T06:42:37;10.00;99.90
9658;DHT22;4867;48.112;11.622;2023-02-17T06:45:04;9.90;99.90
9658;DHT22;4867;48.112;11.622;2023-02-17T06:47:32;9.90;99.90
9658;DHT22;4867;48.112;11.622;2023-02-17T06:50:00;9.90;99.90
9658;DHT22;4867;48.112;11.622;2023-02-17T06:52:27;9.80;99.90
9658;DHT22;4867;48.112;11.622;2023-02-17T06:54:54;9.80;99.90
9658;DHT22;4867;48.112;11.622;2023-02-17T06:57:21;9.90;99.90
9658;DHT22;4867;48.112;11.622;2023-02-17T06:59:49;9.90;99.90
9658;DHT22;4867;48.112;11.622;2023-02-17T07:02:16;9.90;99.90
9658;DHT22;4867;48.112;11.622;2023-02-17T07:04:43;9.90;99.90
9658;DHT22;4867;48.112;11.622;2023-02-17T07:07:10;10.00;99.90
9658;DHT22;4867;48.112;11.622;2023-02-17T07:09:38;10.00;99.90
9658;DHT22;4867;48.112;11.622;2023-02-17T07:12:06;10.10;99.90
9658;DHT22;4867;48.112;11.622;2023-02-17T07:14:34;10.10;99.90
9658;DHT22;4867;48.112;11.622;2023-02-17T07:17:01;10.20;99.90
9658;DHT22;4867;48.112;11.622;2023-02-17T07:19:29;10.20;99.90
9658;DHT22;4867;48.112;11.622;2023-02-17T07:21:56;10.30;99.90
9658;DHT22;4867;48.112;11.622;2023-02-17T07:24:24;10.50;99.90
9658;DHT22;4867;48.112;11.622;2023-02-17T07:26:51;10.50;99.90
9658;DHT22;4867;48.112;11.622;2023-02-17T07:29:21;10.50;99.90
9658;DHT22;4867;48.112;11.622;2023-02-17T07:31:49;10.60;99.90
9658;DHT22;4867;48.112;11.622;2023-02-17T07:34:16;10.60;99.90
9658;DHT22;4867;48.112;11.622;2023-02-17T07:36:43;10.70;99.90
9658;DHT22;4867;48.112;11.622;2023-02-17T07:39:10;10.70;99.90
9658;DHT22;4867;48.112;11.622;2023-02-17T07:41:37;10.80;99.90
9658;DHT22;4867;48.112;11.622;2023-02-17T07:44:09;10.90;99.90
9658;DHT22;4867;48.112;11.622;2023-02-17T07:46:36;11.00;99.90
9658;DHT22;4867;48.112;11.622;2023-02-17T07:49:05;11.10;99.90
9658;DHT22;4867;48.112;11.622;2023-02-17T07:51:33;11.00;99.90
9658;DHT22;4867;48.112;11.622;2023-02-17T07:54:01;11.10;99.90
9658;DHT22;4867;48.112;11.622;2023-02-17T07:56:28;11.10;99.90
9658;DHT22;4867;48.112;11.622;2023-02-17T07:58:56;11.20;99.90
9658;DHT22;4867;48.112;11.622;2023-02-17T08:01:24;11.30;99.90
9658;DHT22;4867;48.112;11.622;2023-02-17T08:03:51;11.20;99.90
9658;DHT22;4867;48.112;11.622;2023-02-17T08:06:20;11.30;99.90
9658;DHT22;4867;48.112;11.622;2023-02-17T08:08:49;11.30;99.90
9658;DHT22;4867;48.112;11.622;2023-02-17T08:11:36;11.30;99.90
9658;DHT22;4867;48.112;11.622;2023-02-17T08:14:24;11.30;99.90
9658;DHT22;4867;48.112;11.622;2023-02-17T08:16:51;11.40;99.90
9658;DHT22;4867;48.112;11.622;2023-02-17T08:19:19;11.40;99.90
9658;DHT22;4867;48.112;11.622;2023-02-17T08:21:46;11.40;99.90
9658;DHT22;4867;48.112;11.622;2023-02-17T08:24:14;11.40;99.90
9658;DHT22;4867;48.112;11.622;2023-02-17T08:26:42;11.40;99.90
9658;DHT22;4867;48.112;11.622;2023-02-17T08:29:09;11.50;99.90
9658;DHT22;4867;48.112;11.622;2023-02-17T08:31:37;11.50;99.90
9658;DHT22;4867;48.112;11.622;2023-02-17T08:34:07;11.60;99.90
9658;DHT22;4867;48.112;11.622;2023-02-17T08:36:35;11.60;99.90
9658;DHT22;4867;48.112;11.622;2023-02-17T08:39:09;11.70;99.90
9658;DHT22;4867;48.112;11.622;2023-02-17T08:41:37;11.70;99.90
9658;DHT22;4867;48.112;11.622;2023-02-17T08:44:11;11.70;99.90
9658;DHT22;4867;48.112;11.622;2023-02-17T08:46:38;11.80;99.90
9658;DHT22;4867;48.112;11.622;2023-02-17T08:49:07;11.80;99.90
9658;DHT22;4867;48.112;11.622;2023-02-17T08:51:34;11.80;99.90
9658;DHT22;4867;48.112;11.622;2023-02-17T08:54:03;12.00;99.90
9658;DHT22;4867;48.112;11.622;2023-02-17T08:56:33;11.90;99.90
9658;DHT22;4867;48.112;11.622;2023-02-17T08:59:00;11.90;99.90
9658;DHT22;4867;48.112;11.622;2023-02-17T09:01:28;11.90;99.90
9658;DHT22;4867;48.112;11.622;2023-02-17T09:03:57;11.90;99.90
9658;DHT22;4867;48.112;11.622;2023-02-17T09:06:36;11.80;99.90
9658;DHT22;4867;48.112;11.622;2023-02-17T09:09:05;11.90;99.90
9658;DHT22;4867;48.112;11.622;2023-02-17T09:11:33;11.90;99.90
9658;DHT22;4867;48.112;11.622;2023-02-17T09:14:00;11.90;99.90
9658;DHT22;4867;48.112;11.622;2023-02-17T09:16:28;11.80;99.90
9658;DHT22;4867;48.112;11.622;2023-02-17T09:18:55;11.80;99.90
9658;DHT22;4867;48.112;11.622;2023-02-17T09:21:23;11.80;99.90
9658;DHT22;4867;48.112;11.622;2023-02-17T09:23:50;11.70;99.90
9658;DHT22;4867;48.112;11.622;2023-02-17T09:26:19;11.70;99.90
9658;DHT22;4867;48.112;11.622;2023-02-17T09:28:47;11.60;99.90
9658;DHT22;4867;48.112;11.622;2023-02-17T09:31:21;11.60;99.90
9658;DHT22;4867;48.112;11.622;2023-02-17T09:33:49;11.50;99.90
9658;DHT22;4867;48.112;11.622;2023-02-17T09:36:19;11.60;99.90
9658;DHT22;4867;48.112;11.622;2023-02-17T09:38:47;11.50;99.90
9658;DHT22;4867;48.112;11.622;2023-02-17T09:41:25;11.60;99.90
9658;DHT22;4867;48.112;11.622;2023-02-17T09:43:53;11.70;99.90
9658;DHT22;4867;48.112;11.622;2023-02-17T09:46:34;11.80;99.90
9658;DHT22;4867;48.112;11.622;2023-02-17T09:49:15;11.80;99.90
9658;DHT22;4867;48.112;11.622;2023-02-17T09:52:09;11.80;99.90
9658;DHT22;4867;48.112;11.622;2023-02-17T09:54:50;11.90;99.90
9658;DHT22;4867;48.112;11.622;2023-02-17T09:57:24;11.90;99.90
9658;DHT22;4867;48.112;11.622;2023-02-17T09:59:56;12.00;99.90
9658;DHT22;4867;48.112;11.622;2023-02-17T10:05:00;12.10;99.90
9658;DHT22;4867;48.112;11.622;2023-02-17T10:07:34;12.20;99.90
9658;DHT22;4867;48.112;11.622;2023-02-17T10:12:54;12.40;99.90
9658;DHT22;4867;48.112;11.622;2023-02-17T10:15:26;12.50;99.90
9658;DHT22;4867;48.112;11.622;2023-02-17T10:23:06;12.80;99.90
9658;DHT22;4867;48.112;11.622;2023-02-17T10:34:00;13.00;99.90
9658;DHT22;4867;48.112;11.622;2023-02-17T10:36:52;12.90;99.90
9658;DHT22;4867;48.112;11.622;2023-02-17T10:42:19;12.90;99.90
9658;DHT22;4867;48.112;11.622;2023-02-17T10:44:48;12.90;99.90
9658;DHT22;4867;48.112;11.622;2023-02-17T10:47:18;13.00;99.90
9658;DHT22;4867;48.112;11.622;2023-02-17T10:49:49;13.10;99.90
9658;DHT22;4867;48.112;11.622;2023-02-17T10:52:31;13.20;99.90
9658;DHT22;4867;48.112;11.622;2023-02-17T10:57:58;13.20;99.90
9658;DHT22;4867;48.112;11.622;2023-02-17T11:00:26;13.20;99.90
9658;DHT22;4867;48.112;11.622;2023-02-17T11:02:54;13.40;99.90
9658;DHT22;4867;48.112;11.622;2023-02-17T11:05:30;13.50;99.90
9658;DHT22;4867;48.112;11.622;2023-02-17T11:11:05;13.80;99.90
9658;DHT22;4867;48.112;11.622;2023-02-17T11:13:41;13.90;99.90
9658;DHT22;4867;48.112;11.622;2023-02-17T11:19:30;14.00;99.90
9658;DHT22;4867;48.112;11.622;2023-02-17T11:22:02;14.00;99.90
9658;DHT22;4867;48.112;11.622;2023-02-17T11:24:32;14.00;99.90
9658;DHT22;4867;48.112;11.622;2023-02-17T11:27:03;13.80;99.90
9658;DHT22;4867;48.112;11.622;2023-02-17T11:29:34;13.90;99.90
9658;DHT22;4867;48.112;11.622;2023-02-17T11:32:03;14.10;99.90
9658;DHT22;4867;48.112;11.622;2023-02-17T11:34:39;14.10;99.90
9658;DHT22;4867;48.112;11.622;2023-02-17T11:39:46;14.00;99.90
9658;DHT22;4867;48.112;11.622;2023-02-17T11:44:42;14.10;99.90
9658;DHT22;4867;48.112;11.622;2023-02-17T11:56:07;14.20;99.90
9658;DHT22;4867;48.112;11.622;2023-02-17T11:58:51;14.10;99.90
9658;DHT22;4867;48.112;11.622;2023-02-17T12:04:29;14.30;99.90
9658;DHT22;4867;48.112;11.622;2023-02-17T12:12:28;14.30;99.90
9658;DHT22;4867;48.112;11.622;2023-02-17T12:15:23;14.30;99.90
9658;DHT22;4867;48.112;11.622;2023-02-17T12:18:15;14.10;99.90
9658;DHT22;4867;48.112;11.622;2023-02-17T12:23:51;14.30;99.90
9658;DHT22;4867;48.112;11.622;2023-02-17T12:29:09;14.90;99.90
9658;DHT22;4867;48.112;11.622;2023-02-17T12:34:27;14.60;99.90
9658;DHT22;4867;48.112;11.622;2023-02-17T12:36:57;14.50;99.90
9658;DHT22;4867;48.112;11.622;2023-02-17T12:39:27;14.40;99.90
9658;DHT22;4867;48.112;11.622;2023-02-17T12:47:58;14.50;99.90
9658;DHT22;4867;48.112;11.622;2023-02-17T12:50:37;14.50;99.90
9658;DHT22;4867;48.112;11.622;2023-02-17T12:53:10;14.30;99.90
9658;DHT22;4867;48.112;11.622;2023-02-17T12:55:44;14.20;99.90
9658;DHT22;4867;48.112;11.622;2023-02-17T12:58:23;14.10;99.90
9658;DHT22;4867;48.112;11.622;2023-02-17T13:03:31;14.10;99.90
9658;DHT22;4867;48.112;11.622;2023-02-17T13:06:18;14.10;99.90
9658;DHT22;4867;48.112;11.622;2023-02-17T13:08:57;14.00;99.90
9658;DHT22;4867;48.112;11.622;2023-02-17T13:11:33;13.90;99.90
9658;DHT22;4867;48.112;11.622;2023-02-17T13:14:28;14.00;99.90
9658;DHT22;4867;48.112;11.622;2023-02-17T13:16:55;13.90;99.90
9658;DHT22;4867;48.112;11.622;2023-02-17T13:19:31;13.70;99.90
9658;DHT22;4867;48.112;11.622;2023-02-17T13:21:59;13.80;99.90
9658;DHT22;4867;48.112;11.622;2023-02-17T13:24:36;13.80;99.90
9658;DHT22;4867;48.112;11.622;2023-02-17T13:27:33;13.50;99.90
9658;DHT22;4867;48.112;11.622;2023-02-17T13:33:27;13.50;99.90
9658;DHT22;4867;48.112;11.622;2023-02-17T13:35:51;13.40;99.90
9658;DHT22;4867;48.112;11.622;2023-02-17T13:38:29;13.50;99.90
9658;DHT22;4867;48.112;11.622;2023-02-17T13:41:02;13.50;99.90
9658;DHT22;4867;48.112;11.622;2023-02-17T13:43:39;13.40;99.90
9658;DHT22;4867;48.112;11.622;2023-02-17T13:46:23;13.40;99.90
9658;DHT22;4867;48.112;11.622;2023-02-17T13:49:00;13.50;99.90
9658;DHT22;4867;48.112;11.622;2023-02-17T13:51:30;13.40;99.90
9658;DHT22;4867;48.112;11.622;2023-02-17T13:54:06;13.50;99.90
9658;DHT22;4867;48.112;11.622;2023-02-17T13:56:34;13.50;99.90
9658;DHT22;4867;48.112;11.622;2023-02-17T13:59:14;13.50;99.90
9658;DHT22;4867;48.112;11.622;2023-02-17T14:01:45;13.40;99.90
9658;DHT22;4867;48.112;11.622;2023-02-17T14:04:19;13.50;99.90
9658;DHT22;4867;48.112;11.622;2023-02-17T14:06:47;13.30;99.90
9658;DHT22;4867;48.112;11.622;2023-02-17T14:09:22;13.30;99.90
9658;DHT22;4867;48.112;11.622;2023-02-17T14:11:51;13.40;99.90
9658;DHT22;4867;48.112;11.622;2023-02-17T14:14:22;13.40;99.90
9658;DHT22;4867;48.112;11.622;2023-02-17T14:17:04;13.50;99.90
9658;DHT22;4867;48.112;11.622;2023-02-17T14:19:46;13.50;99.90
9658;DHT22;4867;48.112;11.622;2023-02-17T14:22:31;13.40;99.90
9658;DHT22;4867;48.112;11.622;2023-02-17T14:25:10;13.30;99.90
9658;DHT22;4867;48.112;11.622;2023-02-17T14:27:43;13.20;99.90
9658;DHT22;4867;48.112;11.622;2023-02-17T14:33:04;13.20;99.90
9658;DHT22;4867;48.112;11.622;2023-02-17T14:35:33;13.20;99.90
9658;DHT22;4867;48.112;11.622;2023-02-17T14:38:18;13.20;99.90
9658;DHT22;4867;48.112;11.622;2023-02-17T14:40:47;13.20;99.90
9658;DHT22;4867;48.112;11.622;2023-02-17T14:43:15;13.20;99.90
9658;DHT22;4867;48.112;11.622;2023-02-17T14:45:42;13.20;99.90
9658;DHT22;4867;48.112;11.622;2023-02-17T14:48:10;13.20;99.90
9658;DHT22;4867;48.112;11.622;2023-02-17T14:50:37;13.30;99.90
9658;DHT22;4867;48.112;11.622;2023-02-17T14:53:16;13.20;99.90
9658;DHT22;4867;48.112;11.622;2023-02-17T14:56:01;13.20;99.90
9658;DHT22;4867;48.112;11.622;2023-02-17T14:58:30;13.30;99.90
9658;DHT22;4867;48.112;11.622;2023-02-17T15:00:58;13.30;99.90
9658;DHT22;4867;48.112;11.622;2023-02-17T15:03:26;13.20;99.90
9658;DHT22;4867;48.112;11.622;2023-02-17T15:05:54;13.20;99.90
9658;DHT22;4867;48.112;11.622;2023-02-17T15:08:29;13.30;99.90
9658;DHT22;4867;48.112;11.622;2023-02-17T15:10:58;13.20;99.90
9658;DHT22;4867;48.112;11.622;2023-02-17T15:13:25;13.20;99.90
9658;DHT22;4867;48.112;11.622;2023-02-17T15:15:52;13.20;99.90
9658;DHT22;4867;48.112;11.622;2023-02-17T15:18:20;13.10;99.90
9658;DHT22;4867;48.112;11.622;2023-02-17T15:20:49;13.10;99.90
9658;DHT22;4867;48.112;11.622;2023-02-17T15:23:21;13.00;99.90
9658;DHT22;4867;48.112;11.622;2023-02-17T15:25:50;13.00;99.90
9658;DHT22;4867;48.112;11.622;2023-02-17T15:28:19;13.00;99.90
9658;DHT22;4867;48.112;11.622;2023-02-17T15:30:53;13.00;99.90
9658;DHT22;4867;48.112;11.622;2023-02-17T15:33:22;12.90;99.90
9658;DHT22;4867;48.112;11.622;2023-02-17T15:35:51;12.80;99.90
9658;DHT22;4867;48.112;11.622;2023-02-17T15:38:22;12.80;99.90
9658;DHT22;4867;48.112;11.622;2023-02-17T15:40:50;12.80;99.90
9658;DHT22;4867;48.112;11.622;2023-02-17T15:43:21;12.70;99.90
9658;DHT22;4867;48.112;11.622;2023-02-17T15:45:49;12.60;99.90
9658;DHT22;4867;48.112;11.622;2023-02-17T15:48:26;12.60;99.90
9658;DHT22;4867;48.112;11.622;2023-02-17T15:50:56;12.70;99.90
9658;DHT22;4867;48.112;11.622;2023-02-17T15:53:23;12.60;99.90
9658;DHT22;4867;48.112;11.622;2023-02-17T15:55:51;12.60;99.90
9658;DHT22;4867;48.112;11.622;2023-02-17T15:58:21;12.50;99.90
9658;DHT22;4867;48.112;11.622;2023-02-17T16:00:48;12.50;99.90
9658;DHT22;4867;48.112;11.622;2023-02-17T16:03:17;12.50;99.90
9658;DHT22;4867;48.112;11.622;2023-02-17T16:05:44;12.40;99.90
9658;DHT22;4867;48.112;11.622;2023-02-17T16:08:12;12.50;99.90
9658;DHT22;4867;48.112;11.622;2023-02-17T16:10:39;12.40;99.90
9658;DHT22;4867;48.112;11.622;2023-02-17T16:13:14;12.40;99.90
9658;DHT22;4867;48.112;11.622;2023-02-17T16:15:43;12.40;99.90
9658;DHT22;4867;48.112;11.622;2023-02-17T16:18:28;12.40;99.90
9658;DHT22;4867;48.112;11.622;2023-02-17T16:20:57;12.40;99.90
9658;DHT22;4867;48.112;11.622;2023-02-17T16:23:24;12.30;99.90
9658;DHT22;4867;48.112;11.622;2023-02-17T16:25:51;12.30;99.90
9658;DHT22;4867;48.112;11.622;2023-02-17T16:28:20;12.20;99.90
9658;DHT22;4867;48.112;11.622;2023-02-17T16:30:49;12.30;99.90
9658;DHT22;4867;48.112;11.622;2023-02-17T16:33:16;12.20;99.90
9658;DHT22;4867;48.112;11.622;2023-02-17T16:35:44;12.30;99.90
9658;DHT22;4867;48.112;11.622;2023-02-17T16:38:13;12.20;99.90
9658;DHT22;4867;48.112;11.622;2023-02-17T16:40:43;12.20;99.90
9658;DHT22;4867;48.112;11.622;2023-02-17T16:43:24;12.00;99.90
9658;DHT22;4867;48.112;11.622;2023-02-17T16:46:01;12.00;99.90
9658;DHT22;4867;48.112;11.622;2023-02-17T16:48:31;12.00;99.90
9658;DHT22;4867;48.112;11.622;2023-02-17T16:50:59;11.90;99.90
9658;DHT22;4867;48.112;11.622;2023-02-17T16:53:26;11.90;99.90
9658;DHT22;4867;48.112;11.622;2023-02-17T16:55:54;11.80;99.90
9658;DHT22;4867;48.112;11.622;2023-02-17T16:58:26;11.80;99.90
9658;DHT22;4867;48.112;11.622;2023-02-17T17:00:54;11.70;99.90
9658;DHT22;4867;48.112;11.622;2023-02-17T17:03:22;11.80;99.90
9658;DHT22;4867;48.112;11.622;2023-02-17T17:05:52;11.60;99.90
9658;DHT22;4867;48.112;11.622;2023-02-17T17:08:19;11.60;99.90
9658;DHT22;4867;48.112;11.622;2023-02-17T17:10:48;11.60;99.90
9658;DHT22;4867;48.112;11.622;2023-02-17T17:13:16;11.60;99.90
9658;DHT22;4867;48.112;11.622;2023-02-17T17:15:44;11.50;99.90
9658;DHT22;4867;48.112;11.622;2023-02-17T17:18:20;11.50;99.90
9658;DHT22;4867;48.112;11.622;2023-02-17T17:20:48;11.50;99.90
9658;DHT22;4867;48.112;11.622;2023-02-17T17:23:15;11.50;99.90
9658;DHT22;4867;48.112;11.622;2023-02-17T17:25:44;11.40;99.90
9658;DHT22;4867;48.112;11.622;2023-02-17T17:28:17;11.40;99.90
9658;DHT22;4867;48.112;11.622;2023-02-17T17:30:46;11.40;99.90
9658;DHT22;4867;48.112;11.622;2023-02-17T17:33:14;11.40;99.90
9658;DHT22;4867;48.112;11.622;2023-02-17T17:35:41;11.30;99.90
9658;DHT22;4867;48.112;11.622;2023-02-17T17:38:13;11.30;99.90
9658;DHT22;4867;48.112;11.622;2023-02-17T17:40:50;11.40;99.90
9658;DHT22;4867;48.112;11.622;2023-02-17T17:43:20;11.40;99.90
9658;DHT22;4867;48.112;11.622;2023-02-17T17:45:49;11.30;99.90
9658;DHT22;4867;48.112;11.622;2023-02-17T17:51:28;11.30;99.90
9658;DHT22;4867;48.112;11.622;2023-02-17T17:53:56;11.30;99.90